Time;durP1;ratioP1;P1;durP2;ratioP2;P2;SDS_P1;SDS_P2;PMS_P1;PMS_P2;Temp;Humidity;BMP_temperature;BMP_pressure;BME280_temperature;BME280_humidity;BME280_pressure;Samples;Min_cycle;Max_cycle;Signal;HPM_P1;HPM_P2
2023/06/09 00:01:58;;;;;;;12.20;9.23;;;;;;;12.41;100.00;101810.72;5033043;28;20432;-42
2023/06/09 00:04:29;;;;;;;13.47;8.90;;;;;;;12.40;100.00;101814.41;5033788;28;20950;-43
2023/06/09 00:06:58;;;;;;;11.80;8.57;;;;;;;12.36;100.00;101807.78;5033304;28;20535;-44
2023/06/09 00:09:27;;;;;;;12.17;7.83;;;;;;;12.24;100.00;101799.38;5033044;28;20439;-42
2023/06/09 00:11:55;;;;;;;16.23;9.10;;;;;;;12.21;100.00;101807.75;5032604;28;20464;-44
2023/06/09 00:14:23;;;;;;;15.30;9.77;;;;;;;12.18;100.00;101811.59;5033623;28;20478;-42
2023/06/09 00:16:51;;;;;;;10.33;8.50;;;;;;;12.14;100.00;101804.97;5033045;28;20444;-42
2023/06/09 00:19:19;;;;;;;12.40;8.43;;;;;;;12.12;100.00;101811.50;5032794;28;20479;-45
2023/06/09 00:21:49;;;;;;;18.20;8.90;;;;;;;12.08;100.00;101807.53;5032913;28;20433;-42
2023/06/09 00:24:19;;;;;;;12.93;9.13;;;;;;;12.08;100.00;101803.00;5032852;28;20778;-42
2023/06/09 00:26:49;;;;;;;16.50;8.83;;;;;;;12.10;100.00;101806.31;5032799;28;20486;-45
2023/06/09 00:29:18;;;;;;;10.97;8.87;;;;;;;12.07;100.00;101806.69;5032704;28;20956;-42
2023/06/09 00:31:46;;;;;;;9.63;8.33;;;;;;;11.97;100.00;101803.44;5032558;28;20444;-48
2023/06/09 00:34:15;;;;;;;10.17;9.17;;;;;;;11.99;100.00;101812.13;5032442;28;20444;-43
2023/06/09 00:36:43;;;;;;;15.77;9.80;;;;;;;11.93;100.00;101812.00;5032856;28;20432;-43
2023/06/09 00:39:11;;;;;;;14.70;9.10;;;;;;;11.85;100.00;101820.09;5032752;28;20472;-43
2023/06/09 00:41:39;;;;;;;17.03;9.57;;;;;;;11.81;100.00;101826.78;5032249;28;20518;-44
2023/06/09 00:44:08;;;;;;;17.07;10.47;;;;;;;11.76;100.00;101815.81;5032058;28;20456;-43
2023/06/09 00:46:36;;;;;;;11.27;10.17;;;;;;;11.67;100.00;101817.69;5032535;28;20462;-42
2023/06/09 00:49:05;;;;;;;11.30;9.20;;;;;;;11.62;100.00;101818.19;5032359;28;20443;-43
2023/06/09 00:51:36;;;;;;;12.67;9.73;;;;;;;11.61;100.00;101813.88;5032287;28;20428;-44
2023/06/09 00:54:05;;;;;;;16.93;10.00;;;;;;;11.58;100.00;101814.22;5031824;28;20543;-43
2023/06/09 00:56:35;;;;;;;18.03;9.50;;;;;;;11.58;100.00;101816.91;5032247;28;20524;-43
2023/06/09 00:59:04;;;;;;;9.90;8.87;;;;;;;11.49;100.00;101815.28;5032207;28;20483;-47
2023/06/09 01:01:33;;;;;;;10.03;8.90;;;;;;;11.45;100.00;101816.66;5031814;28;20432;-45
2023/06/09 01:04:01;;;;;;;19.17;9.40;;;;;;;11.42;100.00;101808.16;5031669;28;20456;-42
2023/06/09 01:06:38;;;;;;;13.93;8.87;;;;;;;11.39;100.00;101816.50;5032411;28;20432;-42
2023/06/09 01:09:16;;;;;;;11.50;8.77;;;;;;;11.38;100.00;101818.34;5031730;28;20427;-43
2023/06/09 01:11:54;;;;;;;11.00;9.90;;;;;;;11.34;100.00;101808.19;5031098;28;20493;-43
2023/06/09 01:14:27;;;;;;;21.37;10.70;;;;;;;11.24;100.00;101819.09;5031995;28;20942;-43
2023/06/09 01:17:07;;;;;;;15.97;10.20;;;;;;;11.14;100.00;101826.47;5032059;28;20494;-45
2023/06/09 01:19:40;;;;;;;19.40;9.83;;;;;;;11.09;100.00;101819.00;5031902;28;20541;-43
2023/06/09 01:22:22;;;;;;;12.60;10.20;;;;;;;11.00;100.00;101819.19;5031165;28;20448;-43
2023/06/09 01:25:05;;;;;;;12.40;11.07;;;;;;;11.01;100.00;101813.72;5031986;28;20428;-42
2023/06/09 01:27:39;;;;;;;14.87;11.17;;;;;;;10.96;100.00;101813.38;5027651;28;20506;-45
2023/06/09 01:30:09;;;;;;;11.70;10.27;;;;;;;10.93;100.00;101807.56;5031849;28;20425;-42
2023/06/09 01:32:38;;;;;;;14.07;11.93;;;;;;;10.92;100.00;101816.56;5030290;28;20692;-43
2023/06/09 01:35:07;;;;;;;18.50;11.30;;;;;;;10.93;100.00;101811.03;5031945;28;20490;-43
2023/06/09 01:37:35;;;;;;;14.27;10.97;;;;;;;10.91;100.00;101812.22;5032109;28;20478;-43
2023/06/09 01:40:05;;;;;;;14.10;11.10;;;;;;;10.86;100.00;101804.75;5031767;28;20507;-45
2023/06/09 01:42:33;;;;;;;13.03;11.67;;;;;;;10.81;100.00;101812.44;5029665;28;20514;-42
2023/06/09 01:45:02;;;;;;;13.00;11.50;;;;;;;10.80;100.00;101813.44;5031658;28;20862;-43
2023/06/09 01:47:30;;;;;;;11.97;10.60;;;;;;;10.76;100.00;101819.28;5031261;28;20448;-45
2023/06/09 01:50:03;;;;;;;18.43;12.83;;;;;;;10.70;100.00;101823.47;5031591;28;20432;-44
2023/06/09 01:52:37;;;;;;;17.40;12.50;;;;;;;10.70;100.00;101817.31;5030927;28;20464;-43
2023/06/09 01:55:12;;;;;;;14.83;11.70;;;;;;;10.63;100.00;101808.34;5031399;28;20428;-45
2023/06/09 01:57:46;;;;;;;19.93;12.40;;;;;;;10.61;100.00;101821.00;5031266;28;20496;-43
2023/06/09 02:00:16;;;;;;;17.70;11.30;;;;;;;10.57;100.00;101825.84;5031674;28;20495;-45
2023/06/09 02:02:47;;;;;;;15.33;12.90;;;;;;;10.57;100.00;101819.69;5030548;28;20464;-46
2023/06/09 02:05:17;;;;;;;17.83;13.37;;;;;;;10.57;100.00;101820.53;5031390;28;20432;-44
2023/06/09 02:07:46;;;;;;;14.40;12.77;;;;;;;10.53;100.00;101820.03;5032733;28;20521;-44
2023/06/09 02:10:14;;;;;;;13.10;11.17;;;;;;;10.53;100.00;101817.38;5037820;28;20478;-42
2023/06/09 02:12:41;;;;;;;18.40;11.97;;;;;;;10.54;100.00;101811.00;5037634;28;20483;-45
2023/06/09 02:15:10;;;;;;;11.93;10.00;;;;;;;10.57;100.00;101809.84;5037908;28;20432;-42
2023/06/09 02:17:40;;;;;;;19.27;12.30;;;;;;;10.57;100.00;101811.69;5037768;28;20468;-43
2023/06/09 02:20:10;;;;;;;18.10;13.30;;;;;;;10.58;100.00;101803.50;5037483;28;20467;-43
2023/06/09 02:22:39;;;;;;;14.17;12.77;;;;;;;10.57;100.00;101812.53;5036936;28;20448;-46
2023/06/09 02:25:08;;;;;;;19.27;12.77;;;;;;;10.55;100.00;101809.19;5038140;28;20420;-44
2023/06/09 02:27:36;;;;;;;17.60;12.03;;;;;;;10.57;100.00;101808.00;5033737;28;20455;-42
2023/06/09 02:30:06;;;;;;;17.23;13.13;;;;;;;10.48;100.00;101811.69;5037502;28;20428;-44
2023/06/09 02:32:34;;;;;;;15.70;13.20;;;;;;;10.45;100.00;101813.88;5037052;28;20464;-43
2023/06/09 02:35:04;;;;;;;18.80;12.73;;;;;;;10.42;100.00;101817.69;5037569;28;20462;-42
2023/06/09 02:37:33;;;;;;;23.80;14.37;;;;;;;10.39;100.00;101814.56;5037761;28;20494;-42
2023/06/09 02:40:00;;;;;;;13.10;11.80;;;;;;;10.40;100.00;101827.72;5037751;28;20475;-42
2023/06/09 02:42:28;;;;;;;15.13;12.60;;;;;;;10.37;100.00;101817.38;5037126;28;20533;-43
2023/06/09 02:44:58;;;;;;;15.50;12.43;;;;;;;10.41;100.00;101817.88;5037500;28;20438;-46
2023/06/09 02:47:26;;;;;;;14.60;12.57;;;;;;;10.46;100.00;101824.38;5037416;28;20456;-42
2023/06/09 02:49:54;;;;;;;22.63;12.00;;;;;;;10.45;100.00;101824.56;5037536;28;20431;-42
2023/06/09 02:52:23;;;;;;;19.40;13.40;;;;;;;10.42;100.00;101828.34;5036330;28;20509;-42
2023/06/09 02:54:51;;;;;;;15.37;13.77;;;;;;;10.33;100.00;101829.41;5037630;28;20949;-42
2023/06/09 02:57:19;;;;;;;18.73;12.43;;;;;;;10.34;100.00;101833.72;5037360;28;20455;-43
2023/06/09 02:59:47;;;;;;;23.80;14.40;;;;;;;10.35;100.00;101840.72;5037414;28;20467;-42
2023/06/09 03:02:15;;;;;;;16.23;12.87;;;;;;;10.43;100.00;101835.38;5036737;28;20609;-44
2023/06/09 03:04:43;;;;;;;15.43;13.80;;;;;;;10.45;100.00;101836.03;5037714;28;20428;-44
2023/06/09 03:07:13;;;;;;;20.67;14.67;;;;;;;10.50;100.00;101846.19;5037690;28;20456;-44
2023/06/09 03:09:45;;;;;;;17.30;12.37;;;;;;;10.55;100.00;101847.34;5037222;28;20941;-43
2023/06/09 03:12:12;;;;;;;16.00;13.27;;;;;;;10.55;100.00;101857.19;5036849;28;20463;-42
2023/06/09 03:14:40;;;;;;;27.43;14.07;;;;;;;10.42;100.00;101855.03;5037345;28;20926;-43
2023/06/09 03:17:08;;;;;;;15.43;13.33;;;;;;;10.48;100.00;101857.03;5037061;28;20519;-45
2023/06/09 03:19:35;;;;;;;17.17;13.70;;;;;;;10.48;100.00;101857.03;5036095;28;20498;-44
2023/06/09 03:22:04;;;;;;;13.87;11.80;;;;;;;10.50;100.00;101854.19;5033704;28;20437;-43
2023/06/09 03:24:33;;;;;;;16.70;11.93;;;;;;;10.67;100.00;101853.16;5034257;28;20471;-43
2023/06/09 03:27:02;;;;;;;18.53;12.50;;;;;;;11.16;100.00;101853.84;5030057;28;20469;-45
2023/06/09 03:29:30;;;;;;;16.27;13.10;;;;;;;11.49;100.00;101854.53;5033903;28;20483;-42
2023/06/09 03:31:58;;;;;;;17.83;13.20;;;;;;;11.48;100.00;101847.50;5033125;28;20806;-42
2023/06/09 03:34:26;;;;;;;15.00;13.10;;;;;;;11.31;100.00;101859.28;5034261;28;20467;-42
2023/06/09 03:36:54;;;;;;;14.57;13.07;;;;;;;11.32;100.00;101852.94;5034017;28;20677;-42
2023/06/09 03:39:22;;;;;;;19.60;11.43;;;;;;;11.28;100.00;101854.28;5033987;28;20479;-44
2023/06/09 03:41:53;;;;;;;17.77;11.70;;;;;;;11.22;100.00;101853.16;5033347;28;20919;-42
2023/06/09 03:44:23;;;;;;;13.83;12.40;;;;;;;11.17;100.00;101850.16;5034040;28;20424;-42
2023/06/09 03:46:50;;;;;;;16.77;14.03;;;;;;;11.18;100.00;101851.81;5033753;28;20432;-47
2023/06/09 03:49:18;;;;;;;13.50;12.20;;;;;;;11.18;100.00;101856.34;5033696;28;20432;-43
2023/06/09 03:51:46;;;;;;;16.83;12.90;;;;;;;11.16;100.00;101851.19;5033354;28;20493;-43
2023/06/09 03:54:14;;;;;;;14.90;12.90;;;;;;;11.11;100.00;101850.84;5033291;28;20528;-43
2023/06/09 03:56:43;;;;;;;15.60;14.10;;;;;;;11.19;100.00;101848.16;5033591;28;20439;-42
2023/06/09 03:59:10;;;;;;;15.20;12.80;;;;;;;11.37;100.00;101845.25;5033784;28;20482;-44
2023/06/09 04:01:40;;;;;;;18.50;13.17;;;;;;;11.59;100.00;101847.94;5033628;28;20424;-44
2023/06/09 04:04:08;;;;;;;17.20;13.77;;;;;;;11.52;100.00;101846.16;5033052;28;20993;-44
2023/06/09 04:06:37;;;;;;;18.53;14.57;;;;;;;11.57;100.00;101849.97;5033483;28;20428;-44
2023/06/09 04:09:05;;;;;;;25.00;15.63;;;;;;;11.64;100.00;101850.94;5033408;28;20775;-43
2023/06/09 04:11:33;;;;;;;20.80;14.00;;;;;;;11.49;100.00;101847.34;5033181;28;20454;-46
2023/06/09 04:14:01;;;;;;;17.50;13.37;;;;;;;11.51;100.00;101839.16;5032865;28;20460;-47
2023/06/09 04:16:29;;;;;;;16.73;14.30;;;;;;;11.68;100.00;101841.53;5032828;28;20483;-49
2023/06/09 04:18:58;;;;;;;19.90;13.73;;;;;;;11.83;100.00;101846.97;5033214;28;20456;-43
2023/06/09 04:21:26;;;;;;;15.70;13.53;;;;;;;11.94;100.00;101846.59;5032921;28;20969;-45
2023/06/09 04:23:53;;;;;;;15.17;13.40;;;;;;;11.81;100.00;101846.34;5032639;28;20537;-45
2023/06/09 04:26:22;;;;;;;24.47;14.07;;;;;;;12.10;100.00;101850.94;5032722;28;20436;-44
2023/06/09 04:28:53;;;;;;;15.30;13.90;;;;;;;12.86;100.00;101855.25;5029182;28;20452;-44
2023/06/09 04:31:23;;;;;;;17.87;15.13;;;;;;;13.56;100.00;101845.66;5032085;28;20440;-48
2023/06/09 04:33:51;;;;;;;17.43;12.43;;;;;;;14.20;100.00;101845.69;5032411;28;20993;-46
2023/06/09 04:36:21;;;;;;;16.67;13.20;;;;;;;14.76;100.00;101841.16;5032589;28;20439;-44
2023/06/09 04:38:49;;;;;;;12.77;11.33;;;;;;;15.20;100.00;101830.03;5032670;28;20456;-44
2023/06/09 04:41:17;;;;;;;17.30;11.07;;;;;;;15.61;100.00;101838.06;5032428;28;20464;-44
2023/06/09 04:43:45;;;;;;;12.43;11.27;;;;;;;16.28;100.00;101838.75;5032239;28;20460;-48
2023/06/09 04:46:13;;;;;;;11.87;10.87;;;;;;;16.89;100.00;101839.34;5032681;28;20436;-44
2023/06/09 04:48:41;;;;;;;11.70;10.60;;;;;;;17.03;100.00;101834.72;5032441;28;20455;-45
2023/06/09 04:51:10;;;;;;;10.97;9.87;;;;;;;17.12;100.00;101849.63;5032476;28;20435;-42
2023/06/09 04:53:39;;;;;;;11.43;9.50;;;;;;;17.60;100.00;101840.09;5031072;28;20468;-44
2023/06/09 04:56:08;;;;;;;12.60;10.17;;;;;;;18.04;100.00;101839.19;5032344;28;20531;-45
2023/06/09 04:58:38;;;;;;;12.17;10.97;;;;;;;18.83;100.00;101827.69;5032461;28;20451;-47
2023/06/09 05:01:05;;;;;;;11.93;10.47;;;;;;;19.04;100.00;101835.38;5032177;28;20826;-45
2023/06/09 05:03:33;;;;;;;11.20;10.07;;;;;;;19.77;100.00;101829.84;5030916;28;20468;-47
2023/06/09 05:06:01;;;;;;;12.47;9.60;;;;;;;19.67;100.00;101835.81;5032293;28;20440;-45
2023/06/09 05:08:29;;;;;;;13.23;10.63;;;;;;;20.13;100.00;101829.69;5031743;28;20509;-45
2023/06/09 05:11:02;;;;;;;11.73;10.40;;;;;;;20.36;98.97;101829.75;5031852;28;20424;-44
2023/06/09 05:13:30;;;;;;;13.73;10.60;;;;;;;21.10;89.28;101836.31;5031383;28;20930;-44
2023/06/09 05:15:59;;;;;;;12.67;9.73;;;;;;;21.30;89.38;101838.59;5028781;28;20435;-44
2023/06/09 05:18:27;;;;;;;10.83;9.73;;;;;;;21.23;78.46;101838.78;5031566;28;21118;-44
2023/06/09 05:20:55;;;;;;;12.70;9.47;;;;;;;21.11;84.00;101837.97;5031853;28;20514;-47
2023/06/09 05:23:23;;;;;;;13.57;12.27;;;;;;;21.95;85.45;101839.06;5004465;28;20471;-45
2023/06/09 05:25:51;;;;;;;10.73;9.63;;;;;;;21.80;82.90;101836.84;5032018;28;20861;-47
2023/06/09 05:28:20;;;;;;;16.27;10.40;;;;;;;22.12;76.89;101839.91;5027663;28;20846;-46
2023/06/09 05:30:48;;;;;;;12.67;9.40;;;;;;;22.59;72.40;101838.47;5031552;28;20950;-47
2023/06/09 05:33:15;;;;;;;14.83;10.40;;;;;;;22.57;76.89;101837.06;5027465;28;20499;-43
2023/06/09 05:35:43;;;;;;;11.13;10.13;;;;;;;21.90;75.75;101841.69;5031764;28;20446;-44
2023/06/09 05:38:11;;;;;;;10.83;9.70;;;;;;;22.39;77.82;101840.88;5030806;28;20447;-48
2023/06/09 05:40:39;;;;;;;11.10;9.50;;;;;;;22.61;68.65;101847.19;5031006;28;20533;-47
2023/06/09 05:43:07;;;;;;;10.83;9.63;;;;;;;22.42;71.72;101850.44;5030144;28;20463;-44
2023/06/09 05:45:36;;;;;;;12.40;8.87;;;;;;;22.74;76.70;101837.91;5031625;28;20772;-44
2023/06/09 05:48:04;;;;;;;9.53;8.70;;;;;;;22.98;70.16;101844.75;5031305;28;20455;-45
2023/06/09 05:50:31;;;;;;;10.60;9.40;;;;;;;22.68;70.57;101851.66;5031000;28;20830;-47
2023/06/09 05:52:59;;;;;;;11.63;9.30;;;;;;;22.63;73.07;101846.13;5029469;28;20464;-45
2023/06/09 05:55:27;;;;;;;11.37;10.30;;;;;;;22.23;72.63;101851.75;5031318;28;20853;-45
2023/06/09 05:57:56;;;;;;;15.30;10.00;;;;;;;22.36;75.36;101857.69;5031271;28;20459;-45
2023/06/09 06:00:29;;;;;;;12.10;9.20;;;;;;;22.79;70.67;101850.75;5025584;28;20428;-45
2023/06/09 06:03:00;;;;;;;14.50;10.27;;;;;;;22.83;69.84;101851.88;5029223;28;20878;-44
2023/06/09 06:05:28;;;;;;;12.40;10.47;;;;;;;22.94;70.07;101854.47;5031089;28;20436;-43
2023/06/09 06:07:57;;;;;;;11.73;9.70;;;;;;;23.41;70.44;101859.47;5030799;28;20447;-45
2023/06/09 06:10:24;;;;;;;15.23;9.67;;;;;;;23.38;63.88;101858.06;5030890;28;20439;-44
2023/06/09 06:12:52;;;;;;;10.47;9.17;;;;;;;22.99;70.62;101856.47;5030087;28;20471;-44
2023/06/09 06:15:21;;;;;;;13.50;10.33;;;;;;;22.74;68.08;101858.81;5027359;28;20431;-47
2023/06/09 06:17:49;;;;;;;11.13;10.03;;;;;;;23.74;66.28;101856.56;5031053;28;20463;-48
2023/06/09 06:20:19;;;;;;;13.53;9.70;;;;;;;24.13;67.20;101849.88;5031039;28;20505;-47
2023/06/09 06:22:48;;;;;;;10.17;9.00;;;;;;;24.48;66.44;101851.25;5030262;28;20554;-45
2023/06/09 06:25:17;;;;;;;12.67;9.87;;;;;;;24.72;66.33;101847.88;5030905;28;20806;-44
2023/06/09 06:27:45;;;;;;;9.30;8.40;;;;;;;25.42;61.26;101857.47;5024184;28;20468;-43
2023/06/09 06:30:15;;;;;;;10.47;8.40;;;;;;;26.29;59.07;101843.72;5010325;28;20460;-47
2023/06/09 06:32:50;;;;;;;10.67;9.67;;;;;;;26.44;57.00;101848.34;5013002;28;20460;-48
2023/06/09 06:35:27;;;;;;;10.20;9.40;;;;;;;26.55;58.20;101839.06;5010843;28;20444;-46
2023/06/09 06:37:56;;;;;;;10.47;9.57;;;;;;;26.76;51.68;101848.03;5011646;28;20452;-46
2023/06/09 06:40:25;;;;;;;10.63;9.10;;;;;;;26.95;52.22;101857.28;5011479;28;20437;-49
2023/06/09 06:42:53;;;;;;;10.87;9.10;;;;;;;26.72;55.11;101857.88;5010552;28;20989;-43
2023/06/09 06:45:22;;;;;;;10.30;9.40;;;;;;;25.94;52.89;101879.22;5011001;28;20460;-43
2023/06/09 06:47:50;;;;;;;11.57;10.43;;;;;;;24.57;57.11;101877.75;5010985;28;20535;-43
2023/06/09 06:50:18;;;;;;;14.33;9.70;;;;;;;23.39;60.88;101878.75;5010270;28;20440;-43
2023/06/09 06:52:48;;;;;;;11.67;10.50;;;;;;;23.38;66.65;101877.09;5010806;28;21056;-44
2023/06/09 06:55:16;;;;;;;10.33;9.43;;;;;;;23.48;69.08;101862.81;5014009;28;21083;-43
2023/06/09 06:57:44;;;;;;;11.87;10.20;;;;;;;23.81;66.61;101870.78;5014836;28;20543;-43
2023/06/09 07:00:14;;;;;;;12.30;11.03;;;;;;;23.56;68.49;101863.19;5015211;28;20475;-43
2023/06/09 07:02:43;;;;;;;12.53;11.30;;;;;;;22.57;74.42;101873.25;5014232;28;20468;-45
2023/06/09 07:05:15;;;;;;;12.40;11.03;;;;;;;22.34;83.51;101870.69;5014826;28;20931;-43
2023/06/09 07:07:43;;;;;;;12.40;11.13;;;;;;;22.12;88.41;101872.50;5014747;28;20574;-48
2023/06/09 07:10:12;;;;;;;12.40;11.10;;;;;;;21.96;90.61;101867.84;5014576;28;20428;-44
2023/06/09 07:12:41;;;;;;;12.20;11.07;;;;;;;22.43;92.28;101869.19;5014052;28;20464;-49
2023/06/09 07:15:10;;;;;;;11.87;10.73;;;;;;;22.75;84.04;101872.19;5014613;28;20436;-44
2023/06/09 07:17:38;;;;;;;12.77;11.70;;;;;;;23.39;82.07;101862.44;5014480;28;20507;-47
2023/06/09 07:20:07;;;;;;;14.60;12.57;;;;;;;23.51;80.21;101859.56;5014788;28;20811;-47
2023/06/09 07:22:39;;;;;;;12.07;10.63;;;;;;;23.32;81.17;101863.69;5013739;28;20594;-46
2023/06/09 07:25:08;;;;;;;13.03;11.97;;;;;;;23.00;82.62;101858.91;5014394;28;20840;-45
2023/06/09 07:27:37;;;;;;;12.37;11.20;;;;;;;23.35;82.09;101863.19;5019254;28;20464;-46
2023/06/09 07:30:06;;;;;;;13.57;12.17;;;;;;;23.97;81.00;101858.16;5034159;28;20428;-48
2023/06/09 07:32:34;;;;;;;12.60;11.40;;;;;;;24.22;79.47;101861.13;5033505;28;20468;-44
2023/06/09 07:35:01;;;;;;;14.87;12.43;;;;;;;24.10;77.51;101863.19;5034274;28;20527;-48
2023/06/09 07:37:31;;;;;;;12.60;11.40;;;;;;;24.28;80.16;101859.28;5034312;28;20475;-45
2023/06/09 07:39:59;;;;;;;14.30;11.60;;;;;;;24.66;74.52;101851.66;5033758;28;20432;-46
2023/06/09 07:42:29;;;;;;;13.10;11.73;;;;;;;24.35;79.06;101854.41;5033102;28;20459;-48
2023/06/09 07:44:59;;;;;;;15.73;12.10;;;;;;;24.67;74.50;101855.19;5034148;28;20436;-44
2023/06/09 07:47:26;;;;;;;13.60;12.17;;;;;;;24.48;74.42;101854.78;5033705;28;20490;-43
2023/06/09 07:49:54;;;;;;;14.00;12.60;;;;;;;24.83;78.15;101865.13;5033755;28;21065;-50
2023/06/09 07:52:22;;;;;;;13.13;11.87;;;;;;;25.02;73.89;101858.16;5033055;28;20460;-49
2023/06/09 07:54:51;;;;;;;16.13;13.60;;;;;;;24.88;75.55;101853.44;5033693;28;20427;-44
2023/06/09 07:57:19;;;;;;;13.87;12.50;;;;;;;24.76;78.44;101867.22;5033751;28;20463;-44
2023/06/09 07:59:46;;;;;;;12.63;11.30;;;;;;;25.07;76.38;101873.72;5033570;28;20470;-44
2023/06/09 08:02:16;;;;;;;13.27;12.07;;;;;;;25.12;78.02;101862.81;5029725;28;21000;-43
2023/06/09 08:04:44;;;;;;;15.93;13.13;;;;;;;24.49;78.21;101864.59;5033690;28;20519;-44
2023/06/09 08:07:12;;;;;;;14.17;11.50;;;;;;;24.44;79.57;101861.84;5032852;28;20890;-48
2023/06/09 08:09:40;;;;;;;13.50;12.40;;;;;;;24.01;82.78;101865.53;5033531;28;20489;-47
2023/06/09 08:12:08;;;;;;;17.83;12.40;;;;;;;23.38;91.43;101866.22;5032708;28;20804;-44
2023/06/09 08:14:36;;;;;;;14.60;13.20;;;;;;;23.13;94.38;101863.16;5033323;28;20435;-44
2023/06/09 08:17:04;;;;;;;15.30;13.67;;;;;;;22.51;100.00;101868.81;5033385;28;20467;-45
2023/06/09 08:19:33;;;;;;;16.87;12.33;;;;;;;22.89;100.00;101868.03;5033634;28;20428;-44
2023/06/09 08:22:01;;;;;;;11.93;10.90;;;;;;;22.33;100.00;101863.63;5032392;28;20471;-47
2023/06/09 08:24:28;;;;;;;13.70;12.30;;;;;;;22.27;100.00;101864.59;5033370;28;20451;-46
2023/06/09 08:26:58;;;;;;;14.33;12.83;;;;;;;22.13;100.00;101868.72;5029726;28;20807;-44
2023/06/09 08:29:25;;;;;;;15.03;11.67;;;;;;;22.13;100.00;101863.28;5016504;28;20435;-47
2023/06/09 08:31:53;;;;;;;13.73;11.93;;;;;;;22.19;100.00;101853.34;5030571;28;20435;-43
2023/06/09 08:34:21;;;;;;;16.47;11.37;;;;;;;22.46;100.00;101852.41;5033075;28;20463;-44
2023/06/09 08:36:50;;;;;;;12.33;10.83;;;;;;;22.73;100.00;101852.56;5032784;28;20880;-46
2023/06/09 08:39:18;;;;;;;13.47;10.33;;;;;;;22.87;100.00;101851.16;5032692;28;20526;-43
2023/06/09 08:41:50;;;;;;;15.70;10.50;;;;;;;22.97;93.71;101858.59;5032293;28;20860;-44
2023/06/09 08:44:20;;;;;;;12.40;9.43;;;;;;;23.15;94.83;101864.56;5032134;28;20521;-43
2023/06/09 08:46:49;;;;;;;15.03;8.93;;;;;;;22.97;96.46;101861.31;5032730;28;20450;-44
2023/06/09 08:49:18;;;;;;;12.27;9.30;;;;;;;23.07;97.20;101865.00;5032871;28;20796;-44
2023/06/09 08:51:46;;;;;;;13.73;9.30;;;;;;;22.95;96.07;101858.88;5032452;28;20545;-44
2023/06/09 08:54:18;;;;;;;12.60;8.63;;;;;;;23.11;95.62;101859.91;5032232;28;20440;-47
2023/06/09 08:56:47;;;;;;;11.83;9.20;;;;;;;23.44;95.58;101862.50;5032694;28;20439;-46
2023/06/09 08:59:16;;;;;;;17.43;9.90;;;;;;;23.57;92.19;101858.53;5032459;28;20486;-46
2023/06/09 09:01:48;;;;;;;15.27;9.73;;;;;;;23.64;93.81;101856.47;5032148;28;20523;-46
2023/06/09 09:04:16;;;;;;;14.40;9.87;;;;;;;23.90;90.11;101857.53;5032350;28;20475;-47
2023/06/09 09:06:45;;;;;;;13.83;9.30;;;;;;;23.75;88.61;101854.66;5032340;28;20933;-45
2023/06/09 09:09:13;;;;;;;12.67;9.00;;;;;;;24.00;87.98;101858.47;5032575;28;20444;-47
2023/06/09 09:11:44;;;;;;;15.40;9.47;;;;;;;23.82;90.82;101855.28;5032258;28;20466;-45
2023/06/09 09:14:13;;;;;;;12.40;9.70;;;;;;;23.71;94.31;101848.91;5031748;28;20664;-45
2023/06/09 09:16:41;;;;;;;13.17;9.00;;;;;;;23.73;92.15;101854.91;5031768;28;20538;-46
2023/06/09 09:19:09;;;;;;;11.20;9.87;;;;;;;23.63;91.01;101850.19;5032135;28;20932;-46
2023/06/09 09:21:38;;;;;;;14.03;9.40;;;;;;;23.79;91.99;101847.63;5031862;28;20494;-45
2023/06/09 09:24:10;;;;;;;12.23;10.10;;;;;;;23.80;93.86;101852.81;5031401;28;21013;-44
2023/06/09 09:26:38;;;;;;;9.67;8.63;;;;;;;23.84;92.96;101847.66;5031307;28;20968;-45
2023/06/09 09:29:08;;;;;;;16.70;10.20;;;;;;;24.01;92.84;101853.84;5029236;28;20448;-48
2023/06/09 09:31:39;;;;;;;16.37;9.83;;;;;;;24.06;89.94;101854.69;5031847;28;20436;-45
2023/06/09 09:34:11;;;;;;;13.60;9.40;;;;;;;24.23;87.08;101851.84;5031026;28;20838;-44
2023/06/09 09:36:42;;;;;;;13.60;8.93;;;;;;;24.05;88.87;101855.78;5032163;28;20439;-45
2023/06/09 09:39:10;;;;;;;9.40;8.50;;;;;;;24.32;86.83;101847.56;5032280;28;20839;-44
2023/06/09 09:41:38;;;;;;;10.20;9.10;;;;;;;24.33;85.12;101854.69;5032031;28;20798;-45
2023/06/09 09:44:06;;;;;;;9.87;9.00;;;;;;;24.40;83.05;101852.53;5031327;28;20888;-44
2023/06/09 09:46:38;;;;;;;8.80;7.93;;;;;;;24.41;83.52;101851.47;5032114;28;20435;-47
2023/06/09 09:49:07;;;;;;;9.70;8.67;;;;;;;24.52;82.25;101853.16;5032147;28;20482;-49
2023/06/09 09:51:37;;;;;;;10.13;8.77;;;;;;;24.61;79.01;101856.25;5031609;28;20436;-48
2023/06/09 09:54:05;;;;;;;13.00;9.53;;;;;;;24.56;78.85;101861.66;5031185;28;20459;-48
2023/06/09 09:56:33;;;;;;;12.23;8.30;;;;;;;24.61;76.44;101851.59;5032165;28;20439;-46
2023/06/09 09:59:02;;;;;;;9.80;8.80;;;;;;;24.41;81.14;101851.47;5031779;28;20985;-46
2023/06/09 10:01:30;;;;;;;16.77;8.30;;;;;;;24.69;79.91;101851.13;5030536;28;20459;-47
2023/06/09 10:04:00;;;;;;;11.90;9.47;;;;;;;24.88;78.59;101856.97;5030966;28;20853;-47
2023/06/09 10:06:32;;;;;;;9.07;8.10;;;;;;;24.99;70.61;101849.66;5031442;28;20439;-45
2023/06/09 10:09:03;;;;;;;8.03;6.97;;;;;;;25.03;64.33;101850.78;5031511;28;20456;-49
2023/06/09 10:11:32;;;;;;;10.07;7.20;;;;;;;25.49;56.13;101844.44;5031378;28;20858;-45
2023/06/09 10:14:01;;;;;;;13.27;7.57;;;;;;;25.64;58.75;101851.84;5031254;28;20463;-47
2023/06/09 10:16:29;;;;;;;7.60;6.00;;;;;;;25.98;51.74;101847.53;5031407;28;20464;-48
2023/06/09 10:18:59;;;;;;;6.10;5.70;;;;;;;26.24;48.22;101843.72;5031486;28;20459;-49
2023/06/09 10:21:28;;;;;;;6.70;6.10;;;;;;;26.46;45.85;101843.44;5031309;28;20466;-47
2023/06/09 10:23:57;;;;;;;12.80;6.70;;;;;;;26.67;46.32;101841.47;5030807;28;20854;-49
2023/06/09 10:26:25;;;;;;;7.07;6.37;;;;;;;26.66;44.51;101837.91;5030346;28;20466;-47
2023/06/09 10:28:53;;;;;;;7.63;7.00;;;;;;;26.74;43.09;101836.53;5028066;28;20459;-49
2023/06/09 10:31:24;;;;;;;6.90;6.30;;;;;;;26.77;42.43;101852.38;5035811;28;20489;-46
2023/06/09 10:33:54;;;;;;;7.00;6.50;;;;;;;27.18;44.63;101844.91;5034328;28;20517;-50
2023/06/09 10:36:24;;;;;;;7.83;6.70;;;;;;;27.19;40.85;101852.81;5035050;28;20412;-46
2023/06/09 10:38:54;;;;;;;7.83;7.10;;;;;;;27.07;44.40;101849.59;5035638;28;20448;-46
2023/06/09 10:41:34;;;;;;;9.70;8.30;;;;;;;26.76;44.58;101851.56;5034783;28;20814;-47
2023/06/09 10:44:18;;;;;;;9.13;8.20;;;;;;;26.68;45.13;101849.41;5034648;28;20475;-45
2023/06/09 10:46:48;;;;;;;8.20;7.40;;;;;;;26.07;45.92;101858.72;5035073;28;20489;-44
2023/06/09 10:49:36;;;;;;;6.70;6.10;;;;;;;26.49;43.36;101845.63;5035110;28;20435;-46
2023/06/09 10:52:07;;;;;;;6.57;6.03;;;;;;;26.27;42.58;101850.56;5034601;28;20981;-44
2023/06/09 10:54:36;;;;;;;7.67;6.93;;;;;;;26.00;43.33;101852.72;5034707;28;20465;-45
2023/06/09 10:57:06;;;;;;;7.07;6.47;;;;;;;25.97;42.84;101853.25;5034949;28;20513;-46
2023/06/09 11:00:15;;;;;;;8.13;6.77;;;;;;;26.00;42.48;101850.81;5032608;28;20446;-45
2023/06/09 11:02:46;;;;;;;6.70;6.30;;;;;;;25.98;40.91;101849.44;4994693;28;20527;-44
2023/06/09 11:05:15;;;;;;;7.50;7.00;;;;;;;26.40;42.40;101845.34;4995348;28;20469;-44
2023/06/09 11:07:48;;;;;;;6.87;6.27;;;;;;;26.65;42.35;101847.22;4995203;28;20454;-45
2023/06/09 11:10:33;;;;;;;9.83;7.13;;;;;;;26.82;39.67;101847.75;4995424;28;20571;-46
2023/06/09 11:13:03;;;;;;;6.87;6.33;;;;;;;26.78;41.71;101837.63;4994740;28;20457;-45
2023/06/09 11:16:03;;;;;;;7.67;7.03;;;;;;;26.60;43.19;101847.25;4995177;28;20524;-45
2023/06/09 11:18:32;;;;;;;7.60;7.00;;;;;;;26.50;43.46;101849.97;4976723;28;20487;-46
2023/06/09 11:21:23;;;;;;;9.20;6.77;;;;;;;26.42;43.23;101836.03;4995155;28;20523;-44